Timimoun, Timimoun Airport (DAUT)

NameTimimoun Airport
CityTimimoun
CountryAlgeria
ICAODAUT
IATATMX
Altitude0 m
CoordinatesGoogle Map
Live Air TrafficLiveATC.net
METARDAUT 251700Z 28016KT 8000 NSC 31/M02 Q1006
2020-04-25 17:00:00 Wind: West (280°) 8.23 m/s - Visibility: 8000 m - Temperature: 31 °C - Dew point: -2 °C - Humidity: 11.6% - Pressure: 1006 hPa

Sorry, no flights used the airport in this database.